createdAt,value
2022-10-11T00:01:09.646Z,69.05
2022-10-11T00:03:38.233Z,34.67
2022-10-11T00:06:08.358Z,49.35
2022-10-11T00:08:37.115Z,39.20
2022-10-11T00:11:08.770Z,41.22
2022-10-11T00:13:37.918Z,42.00
2022-10-11T00:16:12.788Z,44.03
2022-10-11T00:18:42.160Z,55.63
2022-10-11T00:21:14.782Z,66.43
2022-10-11T00:23:44.868Z,41.15
2022-10-11T00:26:13.644Z,36.85
2022-10-11T00:28:43.167Z,39.13
2022-10-11T00:31:14.465Z,37.28
2022-10-11T00:33:43.470Z,43.38
2022-10-11T00:36:15.387Z,40.88
2022-10-11T00:38:46.165Z,36.55
2022-10-11T00:41:15.230Z,36.03
2022-10-11T00:43:44.291Z,35.03
2022-10-11T00:46:19.429Z,35.00
2022-10-11T00:48:51.930Z,33.53
2022-10-11T00:51:39.876Z,35.25
2022-10-11T00:54:12.492Z,37.50
2022-10-11T00:56:44.059Z,33.47
2022-10-11T00:59:16.727Z,33.58
2022-10-11T01:01:45.929Z,33.25
2022-10-11T01:04:14.714Z,32.63
2022-10-11T01:06:43.997Z,32.63
2022-10-11T01:09:13.778Z,33.30
2022-10-11T01:11:44.860Z,32.17
2022-10-11T01:14:31.874Z,33.03
2022-10-11T01:17:30.136Z,32.30
2022-10-11T01:20:25.274Z,34.03
2022-10-11T01:23:19.064Z,31.92
2022-10-11T01:25:55.345Z,30.95
2022-10-11T01:28:39.674Z,33.28
2022-10-11T01:31:22.379Z,32.17
2022-10-11T01:33:57.327Z,33.10
2022-10-11T01:36:32.071Z,32.93
2022-10-11T01:39:20.937Z,33.30
2022-10-11T01:41:54.835Z,33.35
2022-10-11T01:44:27.582Z,32.28
2022-10-11T01:46:56.573Z,33.40
2022-10-11T01:49:25.101Z,32.72
2022-10-11T01:51:56.895Z,34.17
2022-10-11T01:54:50.207Z,32.85
2022-10-11T01:57:42.475Z,31.88
2022-10-11T02:00:29.554Z,32.03
2022-10-11T02:03:25.791Z,31.57
2022-10-11T02:06:31.680Z,32.92
2022-10-11T02:09:09.342Z,32.63
2022-10-11T02:11:39.986Z,34.20
2022-10-11T02:14:26.058Z,33.05
2022-10-11T02:17:15.729Z,33.00
2022-10-11T02:19:49.542Z,33.42
2022-10-11T02:22:33.679Z,30.45
2022-10-11T02:25:07.563Z,29.35
2022-10-11T02:27:40.726Z,27.67
2022-10-11T02:30:11.508Z,26.25
2022-10-11T02:32:44.921Z,26.45
2022-10-11T02:35:14.650Z,26.52
2022-10-11T02:37:45.927Z,26.45
2022-10-11T02:40:38.500Z,26.20
2022-10-11T02:43:18.520Z,26.85
2022-10-11T02:45:55.326Z,27.13
2022-10-11T02:48:26.109Z,24.60
2022-10-11T02:50:56.978Z,24.88
2022-10-11T02:53:27.679Z,23.95
2022-10-11T02:55:57.274Z,23.45
2022-10-11T02:58:26.686Z,23.15
2022-10-11T03:00:55.516Z,22.80
2022-10-11T03:03:24.182Z,21.90
2022-10-11T03:06:00.103Z,23.13
2022-10-11T03:08:29.664Z,21.83
2022-10-11T03:10:58.726Z,22.55
2022-10-11T03:13:28.526Z,23.42
2022-10-11T03:16:07.434Z,23.50
2022-10-11T03:18:36.578Z,22.00
2022-10-11T03:21:05.536Z,22.23
2022-10-11T03:23:34.371Z,21.83
2022-10-11T03:26:03.293Z,21.90
2022-10-11T03:28:32.978Z,21.52
2022-10-11T03:31:01.559Z,21.50
2022-10-11T03:33:30.290Z,20.77
2022-10-11T03:35:59.834Z,22.23
2022-10-11T03:38:29.211Z,22.40
2022-10-11T03:40:58.001Z,23.52
2022-10-11T03:43:27.255Z,28.25
2022-10-11T03:45:55.907Z,23.42
2022-10-11T03:48:28.043Z,22.88
2022-10-11T03:50:56.686Z,23.42
2022-10-11T03:53:25.756Z,22.52
2022-10-11T03:55:56.222Z,22.17
2022-10-11T03:58:25.860Z,23.73
2022-10-11T04:00:54.936Z,23.50
2022-10-11T04:03:23.914Z,23.63
2022-10-11T04:05:55.294Z,24.98
2022-10-11T04:08:24.317Z,24.30
2022-10-11T04:10:53.101Z,24.95
2022-10-11T04:13:21.991Z,25.63
2022-10-11T04:15:50.948Z,25.73
2022-10-11T04:18:20.827Z,25.43
2022-10-11T04:20:50.044Z,25.23
2022-10-11T04:23:18.924Z,26.25
2022-10-11T04:25:49.116Z,25.95
2022-10-11T04:28:18.607Z,27.73
2022-10-11T04:30:47.869Z,28.17
2022-10-11T04:33:16.689Z,27.02
2022-10-11T04:35:45.500Z,27.38
2022-10-11T04:38:14.755Z,28.20
2022-10-11T04:40:43.508Z,27.80
2022-10-11T04:43:12.488Z,27.08
2022-10-11T04:45:41.110Z,28.85
2022-10-11T04:48:10.345Z,26.25
2022-10-11T04:50:39.137Z,25.42
2022-10-11T04:53:09.434Z,26.83
2022-10-11T04:55:38.276Z,26.35
2022-10-11T04:58:06.903Z,25.48
2022-10-11T05:00:35.958Z,27.85
2022-10-11T05:03:04.866Z,27.08
2022-10-11T05:05:33.691Z,26.48
2022-10-11T05:08:02.335Z,26.40
2022-10-11T05:10:31.401Z,25.02
2022-10-11T05:13:00.087Z,26.83
2022-10-11T05:15:28.942Z,25.97
2022-10-11T05:17:57.565Z,27.00
2022-10-11T05:20:26.778Z,26.85
2022-10-11T05:22:55.366Z,24.30
2022-10-11T05:25:24.206Z,25.73
2022-10-11T05:27:52.768Z,27.48
2022-10-11T05:30:22.169Z,26.20
2022-10-11T05:32:50.905Z,25.25
2022-10-11T05:35:20.005Z,25.92
2022-10-11T05:37:48.899Z,24.98
2022-10-11T05:40:17.832Z,25.30
2022-10-11T05:42:46.663Z,24.42
2022-10-11T05:45:15.525Z,24.20
2022-10-11T05:47:44.294Z,25.02
2022-10-11T05:50:13.264Z,26.45
2022-10-11T05:52:42.055Z,25.10
2022-10-11T05:55:11.519Z,24.98
2022-10-11T05:57:40.547Z,24.10
2022-10-11T06:00:10.133Z,22.15
2022-10-11T06:02:42.463Z,22.80
2022-10-11T06:05:11.867Z,23.15
2022-10-11T06:07:41.184Z,22.98
2022-10-11T06:10:10.964Z,21.48
2022-10-11T06:12:40.956Z,19.30
2022-10-11T06:15:11.775Z,20.20
2022-10-11T06:17:40.897Z,19.92
2022-10-11T06:20:10.444Z,20.90
2022-10-11T06:22:52.238Z,23.05
2022-10-11T06:25:21.727Z,20.85
2022-10-11T06:27:50.553Z,20.95
2022-10-11T06:30:19.590Z,20.27
2022-10-11T06:32:48.430Z,19.40
2022-10-11T06:35:17.406Z,19.38
2022-10-11T06:37:46.251Z,20.43
2022-10-11T06:40:15.243Z,20.52
2022-10-11T06:42:44.727Z,21.25
2022-10-11T06:45:13.943Z,21.53
2022-10-11T06:47:42.687Z,23.33
2022-10-11T06:50:11.626Z,23.80
2022-10-11T06:52:40.449Z,23.92
2022-10-11T06:55:09.854Z,25.20
2022-10-11T06:57:38.566Z,23.55
2022-10-11T07:00:12.509Z,22.38
2022-10-11T07:02:42.172Z,22.13
2022-10-11T07:05:11.620Z,23.65
2022-10-11T07:07:40.563Z,23.65
2022-10-11T07:10:09.678Z,23.60
2022-10-11T07:12:38.775Z,23.67
2022-10-11T07:15:08.008Z,24.03
2022-10-11T07:17:37.451Z,25.08
2022-10-11T07:20:08.100Z,23.10
2022-10-11T07:22:37.199Z,23.25
2022-10-11T07:25:06.225Z,23.93
2022-10-11T07:27:35.391Z,23.20
2022-10-11T07:30:04.562Z,22.55
2022-10-11T07:32:33.773Z,22.98
2022-10-11T07:35:02.551Z,23.45
2022-10-11T07:37:31.457Z,21.58
2022-10-11T07:40:00.048Z,22.50
2022-10-11T07:42:29.070Z,22.02
2022-10-11T07:44:58.006Z,21.08
2022-10-11T07:47:27.928Z,21.05
2022-10-11T07:49:56.958Z,19.73
2022-10-11T07:52:25.760Z,22.33
2022-10-11T07:54:54.370Z,22.17
2022-10-11T07:57:23.306Z,22.52
2022-10-11T07:59:51.994Z,22.10
2022-10-11T08:02:20.757Z,21.75
2022-10-11T08:04:49.787Z,22.83
2022-10-11T08:07:19.048Z,21.67
2022-10-11T08:09:47.641Z,21.75
2022-10-11T08:12:16.585Z,22.45
2022-10-11T08:14:45.318Z,22.75
2022-10-11T08:17:15.121Z,22.85
2022-10-11T08:19:43.887Z,21.13
2022-10-11T08:22:12.683Z,21.90
2022-10-11T08:24:41.299Z,20.52
2022-10-11T08:27:10.250Z,19.63
2022-10-11T08:29:39.451Z,20.37
2022-10-11T08:32:12.787Z,19.90
2022-10-11T08:34:41.612Z,19.65
2022-10-11T08:37:10.969Z,18.70
2022-10-11T08:39:40.327Z,19.08
2022-10-11T08:42:15.160Z,20.13
2022-10-11T08:45:10.512Z,20.77
2022-10-11T08:47:46.027Z,20.80
2022-10-11T08:50:25.527Z,20.70
2022-10-11T08:53:07.818Z,19.97
2022-10-11T08:55:52.563Z,19.42
2022-10-11T08:58:26.592Z,19.45
2022-10-11T09:00:57.937Z,18.88
2022-10-11T09:03:47.107Z,17.13
2022-10-11T09:06:25.360Z,18.20
2022-10-11T09:09:28.538Z,18.67
2022-10-11T09:12:16.353Z,18.10
2022-10-11T09:15:10.290Z,19.13
2022-10-11T09:18:06.246Z,18.23
2022-10-11T09:20:50.022Z,18.40
2022-10-11T09:23:39.979Z,18.20
2022-10-11T09:26:11.483Z,17.77
2022-10-11T09:28:51.586Z,18.65
2022-10-11T09:31:21.047Z,18.05
2022-10-11T09:33:52.903Z,19.15
2022-10-11T09:36:32.204Z,18.77
2022-10-11T09:39:15.937Z,18.13
2022-10-11T09:41:58.266Z,19.80
2022-10-11T09:44:33.894Z,19.33
2022-10-11T09:47:02.868Z,20.70
2022-10-11T09:49:46.492Z,21.08
2022-10-11T09:52:21.281Z,22.60
2022-10-11T09:54:58.884Z,23.30
2022-10-11T09:57:31.192Z,23.35
2022-10-11T10:00:36.024Z,24.20
2022-10-11T10:03:05.975Z,24.35
2022-10-11T10:05:40.729Z,23.98
2022-10-11T10:08:12.814Z,25.08
2022-10-11T10:11:11.779Z,24.50
2022-10-11T10:13:43.344Z,24.70
2022-10-11T10:16:28.872Z,25.55
2022-10-11T10:19:01.268Z,25.08
2022-10-11T10:21:36.989Z,25.88
2022-10-11T10:24:46.115Z,26.67
2022-10-11T10:27:24.900Z,26.57
2022-10-11T10:30:17.769Z,25.83
2022-10-11T10:32:58.621Z,27.60
2022-10-11T10:35:54.880Z,28.25
2022-10-11T10:38:41.887Z,28.08
2022-10-11T10:41:14.121Z,25.38
2022-10-11T10:43:46.812Z,24.90
2022-10-11T10:46:24.498Z,24.65
2022-10-11T10:49:51.947Z,24.87
2022-10-11T10:52:22.521Z,24.70
2022-10-11T10:55:15.615Z,25.73
2022-10-11T10:58:02.424Z,26.08
2022-10-11T11:00:40.647Z,25.27
2022-10-11T11:03:28.357Z,26.15
2022-10-11T11:06:19.097Z,22.05
2022-10-11T11:09:31.171Z,20.95
2022-10-11T11:12:30.482Z,21.50
2022-10-11T11:15:40.152Z,20.73
2022-10-11T11:18:29.439Z,21.85
2022-10-11T11:21:55.771Z,24.98
2022-10-11T11:24:51.942Z,20.02
2022-10-11T11:27:32.841Z,21.38
2022-10-11T11:30:08.014Z,22.95
2022-10-11T11:32:44.785Z,22.77
2022-10-11T11:35:35.195Z,26.77
2022-10-11T11:38:31.897Z,23.98
2022-10-11T11:41:06.374Z,23.50
2022-10-11T11:43:41.611Z,23.30
2022-10-11T11:46:16.724Z,25.65
2022-10-11T11:48:46.173Z,24.23
2022-10-11T11:51:30.583Z,27.15
2022-10-11T11:54:16.724Z,28.33
2022-10-11T11:57:07.155Z,26.38
2022-10-11T11:59:53.041Z,26.30
2022-10-11T12:02:43.477Z,27.60
2022-10-11T12:05:17.107Z,27.08
2022-10-11T12:07:55.132Z,27.27
2022-10-11T12:10:35.970Z,26.33
2022-10-11T12:13:09.523Z,27.35
2022-10-11T12:15:38.980Z,29.00
2022-10-11T12:18:16.921Z,28.88
2022-10-11T12:20:46.129Z,29.95
2022-10-11T12:23:30.021Z,30.00
2022-10-11T12:26:20.092Z,32.22
2022-10-11T12:29:29.053Z,32.58
2022-10-11T12:32:01.690Z,32.10
2022-10-11T12:34:37.540Z,30.83
2022-10-11T12:37:21.709Z,30.15
2022-10-11T12:39:54.887Z,30.55
2022-10-11T12:42:36.166Z,30.42
2022-10-11T12:45:14.605Z,29.13
2022-10-11T12:48:01.827Z,29.70
2022-10-11T12:50:58.530Z,29.98
2022-10-11T12:53:42.252Z,30.45
2022-10-11T12:56:15.562Z,29.27
2022-10-11T12:58:51.316Z,29.08
2022-10-11T13:01:24.010Z,29.85
2022-10-11T13:04:12.636Z,29.58
2022-10-11T13:06:57.688Z,30.45
2022-10-11T13:09:32.623Z,29.88
2022-10-11T13:12:07.731Z,30.05
2022-10-11T13:14:40.034Z,31.08
2022-10-11T13:17:18.324Z,30.30
2022-10-11T13:19:47.494Z,30.52
2022-10-11T13:22:22.891Z,29.05
2022-10-11T13:24:51.694Z,28.17
2022-10-11T13:27:27.334Z,26.67
2022-10-11T13:30:01.599Z,26.10
2022-10-11T13:32:33.453Z,25.13
2022-10-11T13:35:05.947Z,25.08
2022-10-11T13:37:45.622Z,23.48
2022-10-11T13:40:16.903Z,23.42
2022-10-11T13:42:49.309Z,25.02
2022-10-11T13:45:27.200Z,24.15
2022-10-11T13:47:56.705Z,24.33
2022-10-11T13:50:33.129Z,25.27
2022-10-11T13:53:26.607Z,24.42
2022-10-11T13:56:01.953Z,25.85
2022-10-11T13:58:41.775Z,27.05
2022-10-11T14:01:28.781Z,26.73
2022-10-11T14:04:03.279Z,27.73
2022-10-11T14:06:46.587Z,28.75
2022-10-11T14:09:40.666Z,29.10
2022-10-11T14:12:30.104Z,28.52
2022-10-11T14:15:00.555Z,27.73
2022-10-11T14:17:46.844Z,28.38
2022-10-11T14:20:26.419Z,28.25
2022-10-11T14:22:59.350Z,28.63
2022-10-11T14:25:28.269Z,28.45
2022-10-11T14:27:57.791Z,29.23
2022-10-11T14:30:28.582Z,27.60
2022-10-11T14:33:00.765Z,29.88
2022-10-11T14:35:33.098Z,30.17
2022-10-11T14:38:02.244Z,28.35
2022-10-11T14:40:33.207Z,28.52
2022-10-11T14:43:02.215Z,29.15
2022-10-11T14:45:31.449Z,28.98
2022-10-11T14:48:00.523Z,28.50
2022-10-11T14:50:34.886Z,28.07
2022-10-11T14:53:05.537Z,28.97
2022-10-11T14:55:35.934Z,27.63
2022-10-11T14:58:08.926Z,27.48
2022-10-11T15:00:38.550Z,27.95
2022-10-11T15:03:10.433Z,27.08
2022-10-11T15:05:40.087Z,27.25
2022-10-11T15:08:09.304Z,30.55
2022-10-11T15:10:42.369Z,27.70
2022-10-11T15:13:11.919Z,27.08
2022-10-11T15:15:43.119Z,27.45
2022-10-11T15:18:18.606Z,27.70
2022-10-11T15:20:48.622Z,27.52
2022-10-11T15:23:17.512Z,27.77
2022-10-11T15:25:46.629Z,26.30
2022-10-11T15:28:29.440Z,26.95
2022-10-11T15:30:59.568Z,26.25
2022-10-11T15:33:28.298Z,25.67
2022-10-11T15:35:57.019Z,26.77
2022-10-11T15:38:27.327Z,26.52
2022-10-11T15:40:57.127Z,25.15
2022-10-11T15:43:25.942Z,24.63
2022-10-11T15:45:57.371Z,23.98
2022-10-11T15:48:27.711Z,24.73
2022-10-11T15:50:57.022Z,24.67
2022-10-11T15:53:32.213Z,24.02
2022-10-11T15:56:10.111Z,23.92
2022-10-11T15:58:42.460Z,23.67
2022-10-11T16:01:21.434Z,24.57
2022-10-11T16:03:51.896Z,23.95
2022-10-11T16:06:22.087Z,23.17
2022-10-11T16:08:51.368Z,23.40
2022-10-11T16:11:20.261Z,23.90
2022-10-11T16:13:50.098Z,25.52
2022-10-11T16:16:19.190Z,25.40
2022-10-11T16:18:47.821Z,25.67
2022-10-11T16:21:16.706Z,25.35
2022-10-11T16:23:45.848Z,23.92
2022-10-11T16:26:17.342Z,25.40
2022-10-11T16:28:48.619Z,25.30
2022-10-11T16:31:22.169Z,26.00
2022-10-11T16:33:53.818Z,25.33
2022-10-11T16:36:36.966Z,25.88
2022-10-11T16:39:13.467Z,26.70
2022-10-11T16:41:43.750Z,26.33
2022-10-11T16:44:21.622Z,27.15
2022-10-11T16:46:51.279Z,25.43
2022-10-11T16:49:25.878Z,27.33
2022-10-11T16:51:57.651Z,26.45
2022-10-11T16:54:34.170Z,26.33
2022-10-11T16:57:04.094Z,27.48
2022-10-11T16:59:32.929Z,27.38
2022-10-11T17:02:02.188Z,28.00
2022-10-11T17:04:31.112Z,27.60
2022-10-11T17:07:00.685Z,27.67
2022-10-11T17:09:29.666Z,27.35
2022-10-11T17:11:58.712Z,28.52
2022-10-11T17:14:27.767Z,27.30
2022-10-11T17:16:56.878Z,28.20
2022-10-11T17:19:26.090Z,28.58
2022-10-11T17:21:55.570Z,30.15
2022-10-11T17:24:24.786Z,28.20
2022-10-11T17:26:55.278Z,28.60
2022-10-11T17:29:25.367Z,30.00
2022-10-11T17:31:55.066Z,29.92
2022-10-11T17:34:24.093Z,28.60
2022-10-11T17:36:53.393Z,28.58
2022-10-11T17:39:24.523Z,27.95
2022-10-11T17:41:54.101Z,30.88
2022-10-11T17:44:23.378Z,30.40
2022-10-11T17:46:52.294Z,31.00
2022-10-11T17:49:21.216Z,29.33
2022-10-11T17:51:50.134Z,30.58
2022-10-11T17:54:19.327Z,30.25
2022-10-11T17:56:48.162Z,32.00
2022-10-11T17:59:19.405Z,32.42
2022-10-11T18:01:48.990Z,31.10
2022-10-11T18:04:18.657Z,30.23
2022-10-11T18:06:49.491Z,30.13
2022-10-11T18:09:20.035Z,31.02
2022-10-11T18:11:50.192Z,30.25
2022-10-11T18:14:19.780Z,30.48
2022-10-11T18:16:48.735Z,25.13
2022-10-11T18:19:20.790Z,25.10
2022-10-11T18:21:50.006Z,22.35
2022-10-11T18:24:18.957Z,17.90
2022-10-11T18:26:48.337Z,16.45
2022-10-11T18:29:17.393Z,8.93
2022-10-11T18:31:47.002Z,7.63
2022-10-11T18:34:16.856Z,8.38
2022-10-11T18:36:46.129Z,7.95
2022-10-11T18:39:16.445Z,6.60
2022-10-11T18:41:45.753Z,7.55
2022-10-11T18:44:16.607Z,7.60
2022-10-11T18:46:47.367Z,7.13
2022-10-11T18:49:16.729Z,7.43
2022-10-11T18:51:47.015Z,7.88
2022-10-11T18:54:20.250Z,8.00
2022-10-11T18:56:50.804Z,7.90
2022-10-11T18:59:20.946Z,8.23
2022-10-11T19:01:53.417Z,10.10
2022-10-11T19:04:22.832Z,9.07
2022-10-11T19:06:54.279Z,10.73
2022-10-11T19:09:26.880Z,9.15
2022-10-11T19:11:58.238Z,10.88
2022-10-11T19:14:29.993Z,11.40
2022-10-11T19:16:59.656Z,13.48
2022-10-11T19:19:31.871Z,13.18
2022-10-11T19:22:01.940Z,14.60
2022-10-11T19:24:32.669Z,14.50
2022-10-11T19:27:03.326Z,14.13
2022-10-11T19:29:33.411Z,13.93
2022-10-11T19:32:05.244Z,14.27
2022-10-11T19:34:34.137Z,14.90
2022-10-11T19:37:04.302Z,14.90
2022-10-11T19:39:33.994Z,15.25
2022-10-11T19:42:02.822Z,15.40
2022-10-11T19:44:35.712Z,15.02
2022-10-11T19:47:07.929Z,15.10
2022-10-11T19:49:36.756Z,15.75
2022-10-11T19:52:06.338Z,14.20
2022-10-11T19:54:35.239Z,13.27
2022-10-11T19:57:04.238Z,14.02
2022-10-11T19:59:33.053Z,13.00
2022-10-11T20:02:02.388Z,10.80
2022-10-11T20:04:51.620Z,10.25
2022-10-11T20:07:21.362Z,9.70
2022-10-11T20:09:50.192Z,8.40
2022-10-11T20:12:19.430Z,3.88
2022-10-11T20:14:48.416Z,4.15
2022-10-11T20:17:17.505Z,4.25
2022-10-11T20:19:46.384Z,5.78
2022-10-11T20:22:15.473Z,6.30
2022-10-11T20:24:44.396Z,6.80
2022-10-11T20:27:13.619Z,6.68
2022-10-11T20:29:42.964Z,4.97
2022-10-11T20:32:12.205Z,5.70
2022-10-11T20:34:41.115Z,3.60
2022-10-11T20:37:10.286Z,3.88
2022-10-11T20:39:39.505Z,5.40
2022-10-11T20:42:09.320Z,4.80
2022-10-11T20:44:38.223Z,3.30
2022-10-11T20:47:07.682Z,2.75
2022-10-11T20:49:36.566Z,2.43
2022-10-11T20:52:05.753Z,2.03
2022-10-11T20:54:36.327Z,1.98
2022-10-11T20:57:06.286Z,1.90
2022-10-11T20:59:35.019Z,1.95
2022-10-11T21:02:04.072Z,1.67
2022-10-11T21:04:32.993Z,1.55
2022-10-11T21:07:01.999Z,1.77
2022-10-11T21:09:30.853Z,1.23
2022-10-11T21:12:01.562Z,1.30
2022-10-11T21:14:30.820Z,1.30
2022-10-11T21:16:59.754Z,1.15
2022-10-11T21:19:29.103Z,1.73
2022-10-11T21:21:57.872Z,1.20
2022-10-11T21:24:26.803Z,1.20
2022-10-11T21:27:00.269Z,1.70
2022-10-11T21:29:29.816Z,1.40
2022-10-11T21:31:58.778Z,1.30
2022-10-11T21:34:27.871Z,1.20
2022-10-11T21:36:56.672Z,1.30
2022-10-11T21:39:26.193Z,1.70
2022-10-11T21:41:55.074Z,1.57
2022-10-11T21:44:24.309Z,1.50
2022-10-11T21:47:06.939Z,1.35
2022-10-11T21:49:37.397Z,1.23
2022-10-11T21:52:14.769Z,1.00
2022-10-11T21:54:44.252Z,1.40
2022-10-11T21:57:13.183Z,1.27
2022-10-11T21:59:42.096Z,1.10
2022-10-11T22:02:11.331Z,1.48
2022-10-11T22:04:40.693Z,1.33
2022-10-11T22:07:09.492Z,1.10
2022-10-11T22:09:38.629Z,1.63
2022-10-11T22:12:08.191Z,1.50
2022-10-11T22:14:37.414Z,1.45
2022-10-11T22:17:06.419Z,1.35
2022-10-11T22:19:35.566Z,1.65
2022-10-11T22:22:04.405Z,1.58
2022-10-11T22:24:33.531Z,1.65
2022-10-11T22:27:02.410Z,1.70
2022-10-11T22:29:34.210Z,1.52
2022-10-11T22:32:03.693Z,1.70
2022-10-11T22:34:33.897Z,1.30
2022-10-11T22:37:02.889Z,1.50
2022-10-11T22:39:32.036Z,1.50
2022-10-11T22:42:01.104Z,1.27
2022-10-11T22:44:29.799Z,1.30
2022-10-11T22:46:59.298Z,1.23
2022-10-11T22:49:28.195Z,1.20
2022-10-11T22:51:57.077Z,1.40
2022-10-11T22:54:25.864Z,1.33
2022-10-11T22:56:54.836Z,1.23
2022-10-11T22:59:23.730Z,1.30
2022-10-11T23:01:52.980Z,1.30
2022-10-11T23:04:22.043Z,1.23
2022-10-11T23:06:51.063Z,1.30
2022-10-11T23:09:20.075Z,1.17
2022-10-11T23:11:49.086Z,1.35
2022-10-11T23:14:17.823Z,1.10
2022-10-11T23:16:47.506Z,1.25
2022-10-11T23:19:16.451Z,1.58
2022-10-11T23:21:45.492Z,1.50
2022-10-11T23:24:14.761Z,1.63
2022-10-11T23:26:43.708Z,1.75
2022-10-11T23:29:12.493Z,1.40
2022-10-11T23:31:41.732Z,1.50
2022-10-11T23:34:10.508Z,1.35
2022-10-11T23:36:39.411Z,1.48
2022-10-11T23:39:09.278Z,1.35
2022-10-11T23:41:39.269Z,1.60
2022-10-11T23:44:08.179Z,1.42
2022-10-11T23:46:37.361Z,1.50
2022-10-11T23:49:06.332Z,1.67
2022-10-11T23:51:35.492Z,1.50
2022-10-11T23:54:04.359Z,1.63
2022-10-11T23:56:33.501Z,1.73
2022-10-11T23:59:02.226Z,1.60
